Time;durP1;ratioP1;P1;durP2;ratioP2;P2;SDS_P1;SDS_P2;PMS_P1;PMS_P2;Temp;Humidity;BMP_temperature;BMP_pressure;BME280_temperature;BME280_humidity;BME280_pressure;Samples;Min_cycle;Max_cycle;Signal;HPM_P1;HPM_P2
2021/09/27 00:00:35;0.00;0.00;0.62;0.00;0.00;0.62;4.83;3.57;;;29.00;38.20;;;;;;2242007;62;20394;-62
2021/09/27 00:03:21;0.00;0.00;0.62;0.00;0.00;0.62;4.13;3.17;;;29.00;38.20;;;;;;2241403;62;20363;-62
2021/09/27 00:06:08;0.00;0.00;0.62;0.00;0.00;0.62;4.27;3.87;;;29.00;38.20;;;;;;2242223;62;20491;-62
2021/09/27 00:08:52;0.00;0.00;0.62;0.00;0.00;0.62;4.43;3.40;;;29.00;38.30;;;;;;2241272;62;20455;-62
2021/09/27 00:11:38;0.00;0.00;0.62;0.00;0.00;0.62;4.43;3.87;;;29.00;38.30;;;;;;2241939;62;20581;-62
2021/09/27 00:14:23;0.00;0.00;0.62;0.00;0.00;0.62;4.40;4.00;;;29.00;38.20;;;;;;2242208;62;20415;-62
2021/09/27 00:17:09;0.00;0.00;0.62;0.00;0.00;0.62;4.40;3.70;;;29.00;38.20;;;;;;2241013;62;20391;-62
2021/09/27 00:19:55;0.00;0.00;0.62;0.00;0.00;0.62;4.20;3.77;;;29.00;38.30;;;;;;2242022;62;20467;-63
2021/09/27 00:22:40;0.00;0.00;0.62;0.00;0.00;0.62;5.00;4.50;;;29.00;38.40;;;;;;2242153;62;20449;-63
2021/09/27 00:25:27;0.00;0.00;0.62;0.00;0.00;0.62;9.73;5.40;;;28.90;38.40;;;;;;2241195;62;20359;-62
2021/09/27 00:28:13;0.00;0.00;0.62;0.00;0.00;0.62;6.30;5.70;;;28.90;38.60;;;;;;2242187;62;20438;-63
2021/09/27 00:30:58;0.00;0.00;0.62;0.00;0.00;0.62;6.10;4.53;;;28.90;38.80;;;;;;2241435;62;20979;-63
2021/09/27 00:33:43;0.00;0.00;0.62;0.00;0.00;0.62;11.73;5.73;;;28.80;38.90;;;;;;2241885;62;20363;-62
2021/09/27 00:36:29;0.00;0.00;0.62;0.00;0.00;0.62;6.50;4.53;;;28.70;39.10;;;;;;2242226;62;20398;-64
2021/09/27 00:39:14;0.00;0.00;0.62;0.00;0.00;0.62;4.60;3.40;;;28.60;39.20;;;;;;2240701;62;20527;-64
2021/09/27 00:41:58;0.00;0.00;0.62;0.00;0.00;0.62;5.13;4.00;;;28.60;39.20;;;;;;2242114;62;20363;-64
2021/09/27 00:44:43;0.00;0.00;0.62;0.00;0.00;0.62;4.53;3.63;;;28.60;39.10;;;;;;2242301;62;20738;-64
2021/09/27 00:47:28;0.00;0.00;0.62;0.00;0.00;0.62;6.30;4.40;;;28.50;39.10;;;;;;2241164;62;20386;-64
2021/09/27 00:50:16;0.00;0.00;0.62;0.00;0.00;0.62;4.83;3.63;;;28.50;39.10;;;;;;2241924;62;20402;-63
2021/09/27 00:53:11;0.00;0.00;0.62;0.00;0.00;0.62;4.13;3.37;;;28.50;39.00;;;;;;2241664;62;20726;-63
2021/09/27 00:55:56;0.00;0.00;0.62;0.00;0.00;0.62;3.93;3.53;;;28.50;39.00;;;;;;2241769;62;20362;-63
2021/09/27 00:58:43;0.00;0.00;0.62;0.00;0.00;0.62;4.63;3.50;;;28.50;39.10;;;;;;2242110;62;20358;-63
2021/09/27 01:01:28;0.00;0.00;0.62;0.00;0.00;0.62;4.50;3.70;;;28.60;39.10;;;;;;2240716;62;20386;-63
2021/09/27 01:04:13;0.00;0.00;0.62;0.00;0.00;0.62;4.53;3.77;;;28.60;39.10;;;;;;2242034;62;20623;-64
2021/09/27 01:07:19;0.00;0.00;0.62;0.00;0.00;0.62;5.10;3.50;;;28.60;39.00;;;;;;2242140;62;20588;-63
2021/09/27 01:10:36;0.00;0.00;0.62;0.00;0.00;0.62;4.13;3.37;;;28.60;39.00;;;;;;2241230;62;20398;-63
2021/09/27 01:14:17;0.00;0.00;0.62;0.00;0.00;0.62;3.90;3.47;;;28.60;39.00;;;;;;2242028;62;20371;-63
2021/09/27 01:17:15;0.00;0.00;0.62;0.00;0.00;0.62;4.80;3.30;;;28.60;38.90;;;;;;2238406;61;20378;-63
2021/09/27 01:20:57;0.00;0.00;0.62;0.00;0.00;0.62;4.00;3.47;;;28.60;38.90;;;;;;2241921;62;20378;-63
2021/09/27 01:24:29;0.00;0.00;0.62;0.00;0.00;0.62;3.60;3.07;;;28.60;38.90;;;;;;2240770;62;20571;-63
2021/09/27 01:28:04;0.00;0.00;0.62;0.00;0.00;0.62;3.43;3.13;;;28.60;38.90;;;;;;2242029;62;20394;-63
2021/09/27 01:31:09;0.00;0.00;0.62;0.00;0.00;0.62;3.53;3.23;;;28.60;38.80;;;;;;2240503;62;20430;-63
2021/09/27 01:34:02;0.00;0.00;0.62;0.00;0.00;0.62;3.80;3.30;;;28.60;38.90;;;;;;2242055;62;20414;-63
2021/09/27 01:36:55;0.00;0.00;0.62;0.00;0.00;0.62;3.13;2.80;;;28.70;38.90;;;;;;2241803;62;20690;-63
2021/09/27 01:39:51;0.00;0.00;0.62;0.00;0.00;0.62;3.47;3.17;;;28.70;38.90;;;;;;2241196;62;20378;-63
2021/09/27 01:42:43;0.00;0.00;0.62;0.00;0.00;0.62;3.43;3.10;;;28.70;38.90;;;;;;2242023;62;20358;-63
2021/09/27 01:45:37;0.00;0.00;0.62;0.00;0.00;0.62;4.40;3.80;;;28.70;38.90;;;;;;2241135;62;20597;-63
2021/09/27 01:48:28;0.00;0.00;0.62;0.00;0.00;0.62;5.60;3.40;;;28.70;39.00;;;;;;2242032;62;20754;-63
2021/09/27 01:51:23;0.00;0.00;0.62;0.00;0.00;0.62;7.67;3.77;;;28.70;38.90;;;;;;2244772;61;20449;-63
2021/09/27 01:54:16;0.00;0.00;0.62;0.00;0.00;0.62;3.73;3.27;;;28.70;38.90;;;;;;2244764;61;20580;-63
2021/09/27 01:57:12;0.00;0.00;0.62;0.00;0.00;0.62;3.90;3.50;;;28.70;39.00;;;;;;2245956;61;20429;-63
2021/09/27 02:00:04;0.00;0.00;0.62;0.00;0.00;0.62;4.17;3.30;;;28.70;39.00;;;;;;2244861;61;20421;-63
2021/09/27 02:02:59;0.00;0.00;0.62;0.00;0.00;0.62;5.17;4.00;;;28.70;39.00;;;;;;2245954;61;20362;-63
2021/09/27 02:05:53;0.00;0.00;0.62;0.00;0.00;0.62;4.03;3.67;;;28.70;39.00;;;;;;2245859;61;20358;-63
2021/09/27 02:08:47;0.00;0.00;0.62;0.00;0.00;0.62;3.67;3.20;;;28.70;39.00;;;;;;2244549;61;20439;-63
2021/09/27 02:11:35;0.00;0.00;0.62;0.00;0.00;0.62;4.30;3.37;;;28.70;39.00;;;;;;2245716;61;20413;-63
2021/09/27 02:14:29;0.00;0.00;0.62;0.00;0.00;0.62;3.40;3.10;;;28.70;39.00;;;;;;2245153;61;20369;-63
2021/09/27 02:17:21;0.00;0.00;0.62;0.00;0.00;0.62;3.90;3.47;;;28.70;39.00;;;;;;2245553;61;20419;-63
2021/09/27 02:20:14;0.00;0.00;0.62;0.00;0.00;0.62;6.30;3.20;;;28.70;39.10;;;;;;2245518;61;20781;-63
2021/09/27 02:23:04;0.00;0.00;0.62;0.00;0.00;0.62;3.83;3.53;;;28.70;39.10;;;;;;2244568;61;20734;-63
2021/09/27 02:25:50;0.00;0.00;0.62;0.00;0.00;0.62;3.50;3.20;;;28.70;39.10;;;;;;2245829;61;20361;-63
2021/09/27 02:28:35;0.00;0.00;0.62;0.00;0.00;0.62;3.67;3.37;;;28.70;39.10;;;;;;2245498;61;20729;-63
2021/09/27 02:31:31;0.00;0.00;0.62;0.00;0.00;0.62;3.87;3.07;;;28.70;39.10;;;;;;2244919;61;20785;-63
2021/09/27 02:34:27;0.00;0.00;0.62;0.00;0.00;0.62;4.17;3.77;;;28.70;39.10;;;;;;2245830;61;20393;-63
2021/09/27 02:37:19;0.00;0.00;0.62;0.00;0.00;0.62;3.70;3.20;;;28.70;39.10;;;;;;2244837;61;20662;-63
2021/09/27 02:40:13;0.00;0.00;0.62;0.00;0.00;0.62;3.60;3.30;;;28.70;39.10;;;;;;2245565;61;20373;-63
2021/09/27 02:43:04;0.00;0.00;0.62;0.00;0.00;0.62;4.90;3.10;;;28.70;39.10;;;;;;2245795;61;20486;-63
2021/09/27 02:45:48;0.00;0.00;0.62;0.00;0.00;0.62;3.40;3.10;;;28.70;39.10;;;;;;2244733;61;20382;-64
2021/09/27 02:48:38;0.00;0.00;0.62;0.00;0.00;0.62;5.63;3.80;;;28.70;39.10;;;;;;2245689;61;20420;-63
2021/09/27 02:51:25;0.00;0.00;0.62;0.00;0.00;0.62;4.03;3.63;;;28.70;39.20;;;;;;2245023;61;20397;-63
2021/09/27 02:54:13;0.00;0.00;0.62;0.00;0.00;0.62;4.60;3.80;;;28.70;39.10;;;;;;2245424;61;20422;-62
2021/09/27 02:57:29;0.00;0.00;0.62;0.00;0.00;0.62;4.83;4.33;;;28.70;39.10;;;;;;2245814;61;20362;-64
2021/09/27 03:00:20;0.00;0.00;0.62;0.00;0.00;0.62;3.40;3.10;;;28.70;39.20;;;;;;2244514;61;20409;-64
2021/09/27 03:03:13;0.00;0.00;0.62;0.00;0.00;0.62;3.93;3.53;;;28.60;39.10;;;;;;2245728;61;20474;-64
2021/09/27 03:06:13;0.00;0.00;0.62;0.00;0.00;0.62;4.90;3.50;;;28.60;39.10;;;;;;2245301;61;20614;-64
2021/09/27 03:09:05;0.00;0.00;0.62;0.00;0.00;0.62;3.77;3.37;;;28.60;39.10;;;;;;2245298;61;20414;-64
2021/09/27 03:12:10;0.00;0.00;0.62;0.00;0.00;0.62;4.50;3.70;;;28.60;39.20;;;;;;2245698;61;20358;-64
2021/09/27 03:15:36;0.00;0.00;0.62;0.00;0.00;0.62;4.40;3.97;;;28.60;39.20;;;;;;2244505;61;20365;-63
2021/09/27 03:18:35;0.00;0.00;0.62;0.00;0.00;0.62;3.73;3.40;;;28.60;39.20;;;;;;2245661;61;20860;-63
2021/09/27 03:21:36;0.00;0.00;0.62;0.00;0.00;0.62;5.90;3.90;;;28.60;39.20;;;;;;2244660;61;20756;-63
2021/09/27 03:24:42;0.00;0.00;0.62;0.00;0.00;0.62;3.40;3.10;;;28.60;39.20;;;;;;2245725;61;20409;-63
2021/09/27 03:27:39;0.00;0.00;0.62;0.00;0.00;0.62;4.03;3.63;;;28.60;39.20;;;;;;2245615;61;20373;-64
2021/09/27 03:30:36;0.00;0.00;0.62;0.00;0.00;0.62;4.30;3.67;;;28.60;39.20;;;;;;2244548;61;20466;-64
2021/09/27 03:33:36;0.00;0.00;0.62;0.00;0.00;0.62;4.10;3.70;;;28.60;39.20;;;;;;2246133;61;20365;-64
2021/09/27 03:36:43;0.00;0.00;0.62;0.00;0.00;0.62;3.97;3.57;;;28.60;39.20;;;;;;2245351;61;20408;-64
2021/09/27 03:39:35;0.00;0.00;0.62;0.00;0.00;0.62;4.03;3.63;;;28.60;39.20;;;;;;2246178;61;20654;-64
2021/09/27 03:42:31;0.00;0.00;0.62;0.00;0.00;0.62;4.80;3.57;;;28.60;39.20;;;;;;2246254;61;20713;-64
2021/09/27 03:45:21;0.00;0.00;0.62;0.00;0.00;0.62;4.33;3.33;;;28.60;39.20;;;;;;2245325;61;20582;-63
2021/09/27 03:48:15;0.00;0.00;0.62;0.00;0.00;0.62;4.33;3.80;;;28.60;39.20;;;;;;2246132;61;20439;-63
2021/09/27 03:51:04;0.00;0.00;0.62;0.00;0.00;0.62;4.50;3.53;;;28.60;39.20;;;;;;2245094;61;20635;-64
2021/09/27 03:53:55;0.00;0.00;0.62;0.00;0.00;0.62;4.13;3.70;;;28.60;39.20;;;;;;2246187;61;20670;-64
2021/09/27 03:56:47;0.00;0.00;0.62;0.00;0.00;0.62;4.40;4.00;;;28.60;39.30;;;;;;2246275;61;20378;-64
2021/09/27 03:59:40;0.00;0.00;0.62;0.00;0.00;0.62;3.30;3.00;;;28.60;39.30;;;;;;2244912;61;20385;-66
2021/09/27 04:02:40;0.00;0.00;0.62;0.00;0.00;0.62;8.17;3.40;;;28.50;39.20;;;;;;2246137;61;20378;-64
2021/09/27 04:05:39;0.00;0.00;0.62;0.00;0.00;0.62;4.37;3.97;;;28.50;39.20;;;;;;2245577;61;20431;-64
2021/09/27 04:08:35;0.00;0.00;0.62;0.00;0.00;0.62;4.13;3.80;;;28.60;39.30;;;;;;2245855;61;20374;-64
2021/09/27 04:11:33;0.00;0.00;0.62;0.00;0.00;0.62;3.80;3.50;;;28.50;39.30;;;;;;2246099;61;20401;-64
2021/09/27 04:14:28;0.00;0.00;0.62;0.00;0.00;0.62;3.90;3.57;;;28.50;39.30;;;;;;2244923;61;20361;-64
2021/09/27 04:17:26;0.00;0.00;0.62;0.00;0.00;0.62;4.23;3.83;;;28.50;39.40;;;;;;2246104;61;20414;-64
2021/09/27 04:20:17;0.00;0.00;0.62;0.00;0.00;0.62;6.60;4.80;;;28.50;39.40;;;;;;2245350;61;20390;-64
2021/09/27 04:23:17;0.00;0.00;0.62;0.00;0.00;0.62;4.77;4.27;;;28.50;39.40;;;;;;2245821;61;20766;-64
2021/09/27 04:26:09;0.00;0.00;0.62;0.00;0.00;0.62;3.87;3.57;;;28.50;39.40;;;;;;2246246;61;20362;-64
2021/09/27 04:29:50;0.00;0.00;0.62;0.00;0.00;0.62;3.87;3.57;;;28.50;39.40;;;;;;2244724;61;20442;-64
2021/09/27 04:32:55;0.00;0.00;0.62;0.00;0.00;0.62;3.77;3.47;;;28.50;39.40;;;;;;2246050;61;20365;-64
2021/09/27 04:35:49;0.00;0.00;0.62;0.00;0.00;0.62;4.93;4.50;;;28.50;39.30;;;;;;2245220;61;20655;-64
2021/09/27 04:38:37;0.00;0.00;0.62;0.00;0.00;0.62;3.53;3.23;;;28.50;39.30;;;;;;2245925;61;20358;-64
2021/09/27 04:41:40;0.00;0.00;0.62;0.00;0.00;0.62;4.37;3.87;;;28.50;39.30;;;;;;2246127;61;20381;-63
2021/09/27 04:44:45;0.00;0.00;0.62;0.00;0.00;0.62;4.40;4.00;;;28.50;39.30;;;;;;2244936;61;20389;-64
2021/09/27 04:47:44;0.00;0.00;0.62;0.00;0.00;0.62;4.40;4.00;;;28.50;39.40;;;;;;2246108;61;20721;-64
2021/09/27 04:50:39;0.00;0.00;0.62;0.00;0.00;0.62;4.13;3.73;;;28.50;39.40;;;;;;2244887;61;20388;-64
2021/09/27 04:53:45;0.00;0.00;0.62;0.00;0.00;0.62;4.40;4.00;;;28.50;39.50;;;;;;2246113;61;20357;-64
2021/09/27 04:56:40;0.00;0.00;0.62;0.00;0.00;0.62;4.17;3.77;;;28.50;39.50;;;;;;2245918;61;20365;-64
2021/09/27 04:59:40;0.00;0.00;0.62;0.00;0.00;0.62;4.40;3.77;;;28.50;39.50;;;;;;2245307;61;20609;-64
2021/09/27 05:02:45;0.00;0.00;0.62;0.00;0.00;0.62;5.87;4.17;;;28.50;39.50;;;;;;2246216;61;20578;-64
2021/09/27 05:05:47;0.00;0.00;0.62;0.00;0.00;0.62;4.47;4.07;;;28.50;39.50;;;;;;2244749;61;20365;-63
2021/09/27 05:09:00;0.00;0.00;0.62;0.00;0.00;0.62;3.97;3.57;;;28.50;39.50;;;;;;2245867;61;20405;-64
2021/09/27 05:12:22;0.00;0.00;0.62;0.00;0.00;0.62;4.90;4.50;;;28.50;39.40;;;;;;2245751;61;20366;-63
2021/09/27 05:15:33;0.00;0.00;0.62;0.00;0.00;0.62;4.43;4.03;;;28.50;39.50;;;;;;2245790;61;20362;-64
2021/09/27 05:19:07;0.00;0.00;0.62;0.00;0.00;0.62;4.77;3.80;;;28.50;39.50;;;;;;2245960;61;20425;-62
2021/09/27 05:22:14;0.00;0.00;0.62;0.00;0.00;0.62;4.27;3.53;;;28.50;39.50;;;;;;2245350;61;20365;-64
2021/09/27 05:25:25;0.00;0.00;0.62;0.00;0.00;0.62;5.33;4.40;;;28.50;39.50;;;;;;2246071;61;20361;-64
2021/09/27 05:28:27;0.00;0.00;0.62;0.00;0.00;0.62;5.70;4.00;;;28.40;39.50;;;;;;2244549;61;20730;-64
2021/09/27 05:31:39;0.00;0.00;0.62;0.00;0.00;0.62;4.40;4.00;;;28.40;39.50;;;;;;2245915;61;20416;-63
2021/09/27 05:34:37;0.00;0.00;0.62;0.00;0.00;0.62;4.87;4.20;;;28.40;39.60;;;;;;2245181;61;20364;-64
2021/09/27 05:37:36;0.00;0.00;0.62;0.00;0.00;0.62;4.83;4.40;;;28.40;39.60;;;;;;2245977;61;20734;-63
2021/09/27 05:40:39;0.00;0.00;0.62;0.00;0.00;0.62;5.07;4.10;;;28.40;39.60;;;;;;2245789;61;20417;-64
2021/09/27 05:43:55;0.00;0.00;0.62;0.00;0.00;0.62;5.50;5.00;;;28.40;39.70;;;;;;2244835;61;20401;-64
2021/09/27 05:46:58;0.00;0.00;0.62;0.00;0.00;0.62;4.43;3.83;;;28.40;39.70;;;;;;2245965;61;20580;-64
2021/09/27 05:49:57;0.00;0.00;0.62;0.00;0.00;0.62;5.10;4.60;;;28.40;39.70;;;;;;2244524;61;20388;-63
2021/09/27 05:52:52;0.00;0.00;0.62;0.00;0.00;0.62;5.30;4.37;;;28.40;39.70;;;;;;2245906;61;20700;-65
2021/09/27 05:55:47;0.00;0.00;0.62;0.00;0.00;0.62;4.90;4.43;;;28.40;39.70;;;;;;2245766;61;20597;-64
2021/09/27 05:58:43;0.00;0.00;0.62;0.00;0.00;0.62;6.13;5.03;;;28.40;39.70;;;;;;2244866;61;20361;-64
2021/09/27 06:01:42;0.00;0.00;0.62;0.00;0.00;0.62;6.17;4.80;;;28.40;39.70;;;;;;2245830;61;20414;-64
2021/09/27 06:04:37;0.00;0.00;0.62;0.00;0.00;0.62;5.03;4.63;;;28.40;39.70;;;;;;2244960;61;20360;-64
2021/09/27 06:07:32;0.00;0.00;0.62;0.00;0.00;0.62;5.13;4.73;;;28.40;39.70;;;;;;2245927;61;20362;-64
2021/09/27 06:10:23;0.00;0.00;0.62;0.00;0.00;0.62;5.53;5.03;;;28.40;39.70;;;;;;2245482;61;20468;-64
2021/09/27 06:13:19;0.00;0.00;0.62;0.00;0.00;0.62;9.07;5.20;;;28.40;39.70;;;;;;2244839;61;20591;-64
2021/09/27 06:16:17;0.00;0.00;0.62;0.00;0.00;0.62;4.13;3.73;;;28.40;39.70;;;;;;2245848;61;20582;-64
2021/09/27 06:19:09;0.00;0.00;0.62;0.00;0.00;0.62;4.73;4.33;;;28.40;39.70;;;;;;2244764;61;20362;-64
2021/09/27 06:22:21;0.00;0.00;0.62;0.00;0.00;0.62;4.80;4.40;;;28.40;39.70;;;;;;2245882;61;20370;-64
2021/09/27 06:25:17;0.00;0.00;0.62;0.00;0.00;0.62;6.03;4.60;;;28.40;39.60;;;;;;2245911;61;20426;-64
2021/09/27 06:28:16;0.00;0.00;0.62;0.00;0.00;0.62;4.70;4.27;;;28.40;39.70;;;;;;2244864;61;20361;-64
2021/09/27 06:31:06;0.00;0.00;0.62;0.00;0.00;0.62;5.40;4.90;;;28.40;39.70;;;;;;2245438;61;20518;-64
2021/09/27 06:33:57;0.00;0.00;0.62;0.00;0.00;0.62;4.80;4.30;;;28.40;39.70;;;;;;2244922;61;20362;-64
2021/09/27 06:36:43;0.00;0.00;0.62;0.00;0.00;0.62;5.60;4.83;;;28.40;39.70;;;;;;2245829;61;20618;-64
2021/09/27 06:39:30;0.00;0.00;0.62;0.00;0.00;0.62;4.80;4.30;;;28.40;39.70;;;;;;2245570;61;20385;-64
2021/09/27 06:42:15;0.00;0.00;0.62;0.00;0.00;0.62;6.37;4.43;;;28.40;39.80;;;;;;2244666;61;20413;-64
2021/09/27 06:45:01;0.00;0.00;0.62;0.00;0.00;0.62;6.33;4.73;;;28.40;39.70;;;;;;2245659;61;20358;-64
2021/09/27 06:47:45;0.00;0.00;0.62;0.00;0.00;0.62;4.77;4.13;;;28.40;39.80;;;;;;2245648;61;20368;-64
2021/09/27 06:50:30;0.00;0.00;0.62;0.00;0.00;0.62;4.97;4.37;;;28.40;39.80;;;;;;2245012;61;20432;-64
2021/09/27 06:53:16;0.00;0.00;0.62;0.00;0.00;0.62;5.53;5.03;;;28.40;39.80;;;;;;2245543;61;20369;-64
2021/09/27 06:56:01;0.00;0.00;0.62;0.00;0.00;0.62;5.10;4.53;;;28.40;39.80;;;;;;2244921;61;20627;-64
2021/09/27 06:58:46;0.00;0.00;0.62;0.00;0.00;0.62;4.90;4.40;;;28.40;39.80;;;;;;2245464;61;20365;-64
2021/09/27 07:01:33;0.00;0.00;0.62;0.00;0.00;0.62;5.57;5.07;;;28.40;39.80;;;;;;2245747;61;20601;-64
2021/09/27 07:04:17;0.00;0.00;0.62;0.00;0.00;0.62;5.03;4.63;;;28.40;39.80;;;;;;2244600;61;20577;-64
2021/09/27 07:07:03;0.00;0.00;0.62;0.00;0.00;0.62;5.60;4.80;;;28.40;39.80;;;;;;2245923;61;20572;-64
2021/09/27 07:09:48;0.00;0.00;0.62;0.00;0.00;0.62;5.93;5.40;;;28.40;39.80;;;;;;2246079;61;20404;-62
2021/09/27 07:12:32;0.00;0.00;0.62;0.00;0.00;0.62;8.97;7.00;;;28.40;39.80;;;;;;2245281;61;20413;-66
2021/09/27 07:15:19;0.00;0.00;0.62;0.00;0.00;0.62;7.07;6.30;;;28.40;39.90;;;;;;2246427;61;20369;-67
2021/09/27 07:18:04;0.00;0.00;0.62;0.00;0.00;0.62;6.87;6.23;;;28.40;40.00;;;;;;2245867;61;20361;-64
2021/09/27 07:20:49;0.00;0.00;0.62;0.00;0.00;0.62;12.40;9.47;;;28.40;40.00;;;;;;2245879;61;20621;-63
2021/09/27 07:23:38;0.00;0.00;0.62;0.00;0.00;0.62;10.23;9.23;;;28.30;40.00;;;;;;2246420;61;20417;-65
2021/09/27 07:26:23;0.00;0.00;0.62;0.00;0.00;0.62;11.27;10.13;;;28.30;40.00;;;;;;2245290;61;20361;-65
2021/09/27 07:29:10;0.00;0.00;0.62;0.00;0.00;0.62;11.47;9.93;;;28.20;39.90;;;;;;2246179;61;20377;-62
2021/09/27 07:31:55;0.00;0.00;0.62;0.00;0.00;0.62;15.20;10.80;;;28.10;39.90;;;;;;2245832;61;20369;-60
2021/09/27 07:34:42;0.00;0.00;0.62;0.00;0.00;0.62;11.37;9.97;;;28.00;40.00;;;;;;2245358;61;20721;-67
2021/09/27 07:37:27;0.00;0.00;0.62;0.00;0.00;0.62;11.33;10.17;;;27.90;40.10;;;;;;2246329;61;20481;-64
2021/09/27 07:40:20;0.00;0.00;0.62;0.00;0.00;0.62;9.23;8.10;;;27.90;40.40;;;;;;2245545;61;20377;-65
2021/09/27 07:43:05;0.00;0.00;0.62;0.00;0.00;0.62;9.13;8.20;;;27.80;40.50;;;;;;2246154;61;20361;-67
2021/09/27 07:45:50;0.00;0.00;0.62;0.00;0.00;0.62;8.60;7.80;;;27.70;40.60;;;;;;2246379;61;20357;-60
2021/09/27 07:48:35;0.00;0.00;0.62;0.00;0.00;0.62;9.70;8.70;;;27.70;40.60;;;;;;2245550;61;20619;-61
2021/09/27 07:51:22;0.00;0.00;0.62;0.00;0.00;0.62;10.47;7.00;;;27.70;40.70;;;;;;2248137;61;20417;-63
2021/09/27 07:54:07;0.00;0.00;0.62;0.00;0.00;0.62;9.57;8.33;;;27.70;40.90;;;;;;2248175;61;20688;-59
2021/09/27 07:56:52;0.00;0.00;0.62;0.00;0.00;0.62;9.20;8.40;;;27.70;40.90;;;;;;2246458;61;20686;-64
2021/09/27 07:59:37;0.00;0.00;0.62;0.00;0.00;0.62;10.50;9.40;;;27.70;41.00;;;;;;2248985;61;20690;-61
2021/09/27 08:02:28;0.00;0.00;0.62;0.00;0.00;0.62;9.83;8.93;;;27.70;41.40;;;;;;2247116;61;20365;-64
2021/09/27 08:05:19;0.00;0.00;0.62;0.00;0.00;0.62;9.90;8.97;;;27.70;41.50;;;;;;2245999;61;20357;-61
2021/09/27 08:08:07;0.00;0.00;0.62;0.00;0.00;0.62;10.70;8.93;;;27.70;41.30;;;;;;2244752;61;20402;-63
2021/09/27 08:10:53;0.00;0.00;0.62;0.00;0.00;0.62;10.40;9.40;;;27.70;41.20;;;;;;2240967;62;20398;-61
2021/09/27 08:13:38;0.00;0.00;0.62;0.00;0.00;0.62;10.67;8.60;;;27.60;41.10;;;;;;2241931;62;20371;-69
2021/09/27 08:16:22;0.00;0.00;0.62;0.00;0.00;0.62;9.27;8.30;;;27.60;41.10;;;;;;2241773;62;20366;-69
2021/09/27 08:19:07;0.00;0.00;0.62;0.00;0.00;0.62;10.63;9.57;;;27.60;41.30;;;;;;2241366;62;20403;-69
2021/09/27 08:21:52;0.00;0.00;0.62;0.00;0.00;0.62;11.37;10.37;;;27.50;41.40;;;;;;2241812;62;20374;-64
2021/09/27 08:24:38;0.00;0.00;0.62;0.00;0.00;0.62;10.70;9.60;;;27.50;41.30;;;;;;2241587;62;20354;-64
2021/09/27 08:27:22;0.00;0.00;0.62;0.00;0.00;0.62;11.00;9.90;;;27.50;41.30;;;;;;2242163;62;20414;-64
2021/09/27 08:30:10;0.00;0.00;0.62;0.00;0.00;0.62;10.33;9.37;;;27.50;41.50;;;;;;2242427;62;20463;-62
2021/09/27 08:32:56;0.00;0.00;0.62;0.00;0.00;0.62;9.90;8.90;;;27.50;41.60;;;;;;2643109;46;20411;-61
2021/09/27 08:35:41;0.00;0.00;0.62;0.00;0.00;0.62;9.87;8.97;;;27.40;41.50;;;;;;2244148;62;20407;-63
2021/09/27 08:38:27;0.00;0.00;0.62;0.00;0.00;0.62;9.77;8.77;;;27.40;41.50;;;;;;2244191;62;20366;-65
2021/09/27 08:41:24;0.00;0.00;0.62;0.00;0.00;0.62;9.83;8.27;;;27.40;41.50;;;;;;2242433;62;20418;-67
2021/09/27 08:44:50;0.00;0.00;0.62;0.00;0.00;0.62;8.47;7.77;;;27.40;41.50;;;;;;2242110;62;20366;-67
2021/09/27 08:47:44;0.00;0.00;0.62;0.00;0.00;0.62;8.43;7.73;;;27.40;41.60;;;;;;2231480;62;20439;-67
2021/09/27 08:50:34;0.00;0.00;0.62;0.00;0.00;0.62;8.17;7.47;;;27.50;41.60;;;;;;2241912;62;20401;-67
2021/09/27 08:53:26;0.00;0.00;0.62;0.00;0.00;0.62;8.17;7.47;;;27.60;41.70;;;;;;2246030;61;20368;-65
2021/09/27 08:56:22;0.00;0.00;0.62;0.00;0.00;0.62;6.93;6.33;;;27.60;41.70;;;;;;2245137;61;20433;-65
2021/09/27 08:59:14;0.00;0.00;0.62;0.00;0.00;0.62;7.67;6.97;;;27.60;41.70;;;;;;2248529;61;20361;-62
2021/09/27 09:02:06;0.00;0.00;0.62;0.00;0.00;0.62;7.63;7.00;;;27.70;41.70;;;;;;2247409;61;20474;-67
2021/09/27 09:05:05;0.00;0.00;0.62;0.00;0.00;0.62;8.23;7.53;;;27.80;41.80;;;;;;2246121;61;20376;-62
2021/09/27 09:08:00;0.00;0.00;0.62;0.00;0.00;0.62;7.50;6.80;;;27.80;41.80;;;;;;2243101;61;20418;-66
2021/09/27 09:10:52;0.00;0.00;0.62;0.00;0.00;0.62;7.83;7.00;;;27.90;41.70;;;;;;2241092;62;20386;-67
2021/09/27 09:13:43;0.00;0.00;0.62;0.00;0.00;0.62;7.83;6.43;;;27.90;41.60;;;;;;2241900;62;20358;-64
2021/09/27 09:16:29;0.00;0.00;0.62;0.00;0.00;0.62;7.07;6.47;;;28.00;41.50;;;;;;2241401;62;20421;-64
2021/09/27 09:19:20;0.00;0.00;0.62;0.00;0.00;0.62;7.63;6.93;;;28.00;41.30;;;;;;2241733;62;20472;-64
2021/09/27 09:22:12;0.00;0.00;0.62;0.00;0.00;0.62;7.93;7.10;;;28.10;41.30;;;;;;2243395;62;20443;-63
2021/09/27 09:24:56;0.00;0.00;0.62;0.00;0.00;0.62;8.63;7.93;;;28.10;41.30;;;;;;2241488;62;20363;-63
2021/09/27 09:27:41;0.00;0.00;0.62;0.00;0.00;0.62;8.70;7.80;;;28.10;41.20;;;;;;2242010;62;20362;-66
2021/09/27 09:30:35;0.00;0.00;0.62;0.00;0.00;0.62;8.10;7.40;;;28.20;41.30;;;;;;2241508;62;20766;-63
2021/09/27 09:33:45;0.00;0.00;0.62;0.00;0.00;0.62;7.13;6.30;;;28.20;41.20;;;;;;2241464;62;20589;-65
2021/09/27 09:36:38;0.00;0.00;0.62;0.00;0.00;0.62;7.30;6.70;;;28.30;41.30;;;;;;2242101;62;20477;-64
2021/09/27 09:39:28;0.00;0.00;0.62;0.00;0.00;0.62;12.33;6.87;;;28.30;41.20;;;;;;2241000;62;20623;-66
2021/09/27 09:42:27;0.00;0.00;0.62;0.00;0.00;0.62;7.23;6.60;;;28.40;41.20;;;;;;2244093;61;20789;-66
2021/09/27 09:45:18;0.00;0.00;0.62;0.00;0.00;0.62;9.20;8.40;;;28.40;41.20;;;;;;2246353;61;20369;-62
2021/09/27 09:48:22;0.00;0.00;0.62;0.00;0.00;0.62;7.97;7.27;;;28.40;41.10;;;;;;2249201;61;20438;-62
2021/09/27 09:51:27;0.00;0.00;0.62;0.00;0.00;0.62;8.63;7.83;;;28.50;40.90;;;;;;2249721;61;20392;-63
2021/09/27 09:54:19;0.00;0.00;0.62;0.00;0.00;0.62;8.20;7.40;;;28.50;40.70;;;;;;2248612;61;20372;-65
2021/09/27 09:57:15;0.00;0.00;0.62;0.00;0.00;0.62;8.20;7.50;;;28.50;40.60;;;;;;2249892;61;20380;-63
2021/09/27 10:00:08;0.00;0.00;0.62;0.00;0.00;0.62;8.10;6.87;;;28.60;40.60;;;;;;2249614;61;20385;-64
2021/09/27 10:02:53;0.00;0.00;0.62;0.00;0.00;0.62;7.23;6.63;;;28.60;40.60;;;;;;2249281;61;20361;-63
2021/09/27 10:05:42;0.00;0.00;0.62;0.00;0.00;0.62;9.67;8.77;;;28.60;40.60;;;;;;2252368;61;20739;-58
2021/09/27 10:08:28;0.00;0.00;0.62;0.00;0.00;0.62;12.67;10.13;;;28.60;40.40;;;;;;2247949;61;20393;-61
2021/09/27 10:11:23;0.00;0.00;0.62;0.00;0.00;0.62;10.60;9.60;;;28.60;40.20;;;;;;2248174;61;20413;-62
2021/09/27 10:14:23;0.00;0.00;0.62;0.00;0.00;0.62;18.20;9.37;;;28.60;40.10;;;;;;2248083;61;20634;-61
2021/09/27 10:17:25;0.00;0.00;0.62;0.00;0.00;0.62;10.13;8.20;;;28.70;39.90;;;;;;2246978;61;20417;-61
2021/09/27 10:20:16;0.00;0.00;0.62;0.00;0.00;0.62;9.57;8.47;;;28.60;39.60;;;;;;2245715;61;20477;-61
2021/09/27 10:23:11;0.00;0.00;0.62;0.00;0.00;0.62;8.83;7.93;;;28.60;39.50;;;;;;2245135;61;20365;-63
2021/09/27 10:26:11;0.00;0.00;0.62;0.00;0.00;0.62;8.90;7.73;;;28.70;40.10;;;;;;2245643;61;20421;-64
2021/09/27 10:29:01;0.00;0.00;0.62;0.00;0.00;0.62;7.90;7.10;;;28.60;39.30;;;;;;2245568;61;20749;-65
2021/09/27 10:31:54;0.00;0.00;0.62;0.00;0.00;0.62;7.90;7.10;;;28.60;39.00;;;;;;2244606;61;20390;-62
2021/09/27 10:34:39;0.00;0.00;0.62;0.00;0.00;0.62;7.87;6.90;;;28.60;38.90;;;;;;2245866;61;20362;-63
2021/09/27 10:37:26;0.00;0.00;0.62;0.00;0.00;0.62;7.13;6.53;;;28.60;38.50;;;;;;2245499;61;20370;-62
2021/09/27 10:40:18;0.00;0.00;0.62;0.00;0.00;0.62;12.63;7.70;;;28.60;38.20;;;;;;2245150;61;20606;-63
2021/09/27 10:43:10;0.00;0.00;0.62;0.00;0.00;0.62;8.53;7.57;;;28.60;38.20;;;;;;2245756;61;20382;-63
2021/09/27 10:45:59;0.00;0.00;0.62;0.00;0.00;0.62;7.83;7.10;;;28.60;38.20;;;;;;2244573;61;20381;-61
2021/09/27 10:48:51;0.00;0.00;0.62;0.00;0.00;0.62;8.47;7.60;;;28.60;38.30;;;;;;2245793;61;20586;-60
2021/09/27 10:51:38;0.00;0.00;0.62;0.00;0.00;0.62;8.37;7.60;;;28.60;38.40;;;;;;2245645;61;20429;-62
2021/09/27 10:54:35;0.00;0.00;0.62;0.00;0.00;0.62;10.60;7.70;;;28.60;38.50;;;;;;2244887;61;20370;-63
2021/09/27 10:57:31;0.00;0.00;0.62;0.00;0.00;0.62;9.10;7.17;;;28.60;38.60;;;;;;2245804;61;20358;-62
2021/09/27 11:00:30;0.00;0.00;0.62;0.00;0.00;0.62;10.80;6.87;;;28.60;38.70;;;;;;2244908;61;20390;-61
2021/09/27 11:03:21;0.00;0.00;0.62;0.00;0.00;0.62;7.87;7.07;;;28.60;38.80;;;;;;2244662;61;20778;-63
2021/09/27 11:06:26;0.00;0.00;0.62;0.00;0.00;0.62;7.30;6.50;;;28.70;39.20;;;;;;2245310;61;20582;-61
2021/09/27 11:09:18;0.00;0.00;0.62;0.00;0.00;0.62;7.70;7.00;;;28.70;38.40;;;;;;2240879;62;20410;-61
2021/09/27 11:12:08;0.00;0.00;0.62;0.00;0.00;0.62;14.13;7.00;;;28.70;38.20;;;;;;2241432;62;20429;-62
2021/09/27 11:15:03;0.00;0.00;0.62;0.00;0.00;0.62;10.33;6.37;;;28.60;37.80;;;;;;2241062;62;20525;-61
2021/09/27 11:24:02;0.00;0.00;0.62;0.00;0.00;0.62;7.67;5.90;;;28.60;38.10;;;;;;2429473;56;20447;-58
2021/09/27 11:27:08;0.00;0.00;0.62;0.00;0.00;0.62;10.23;7.20;;;28.60;38.20;;;;;;2353410;53;20495;-59
2021/09/27 11:29:58;0.00;0.00;0.62;0.00;0.00;0.62;23.33;8.13;;;28.60;38.00;;;;;;2253595;61;20406;-58
2021/09/27 11:32:50;0.00;0.00;0.62;0.00;0.00;0.62;20.63;8.00;;;28.60;37.60;;;;;;2252420;61;20480;-58